West Greene, Alabama
Current Conditions -  °F | °C
As of 10:55 AM on Saturday 25 Oct 2014 (Local Time) from KDYA Reporting Station
Clear Clear  
Wind Chill: 70°   Ceiling: Unl
Heat Index: 70°   Visibility: 10mi
Dew Point: 51°   Wind: 0mph
Humidity: 51%   Direction: NA
Pressure: 30.14"   Gusts: NA
Location:  32.92°N, 88.09°W
Report Text: KDYA 251555Z AUTO 00000KT 10SM CLR 21/11 A3014 RMK AO2 T02090105
Loading
Personal Weather Stations






























Interactive Weather Map
Tropical Storm Tracking
New forecast layout! Learn more

10-Day Weather Forecast

Advertisements
Track Severe Weather on mobile